createdAt,value
2019-02-11T00:00:38.180Z,90.10
2019-02-11T00:05:41.836Z,91.30
2019-02-11T00:10:45.561Z,90.10
2019-02-11T00:15:49.265Z,90.30
2019-02-11T00:20:52.937Z,89.30
2019-02-11T00:25:56.657Z,89.20
2019-02-11T00:31:00.371Z,89.80
2019-02-11T00:36:04.067Z,88.50
2019-02-11T00:41:07.883Z,89.00
2019-02-11T00:46:11.647Z,89.60
2019-02-11T00:51:15.672Z,89.50
2019-02-11T00:56:19.973Z,90.20
2019-02-11T01:01:23.768Z,90.30
2019-02-11T01:06:27.787Z,89.70
2019-02-11T01:11:31.555Z,90.10
2019-02-11T01:16:35.276Z,90.50
2019-02-11T01:21:39.255Z,91.60
2019-02-11T01:26:42.948Z,92.10
2019-02-11T01:31:46.651Z,91.90
2019-02-11T01:36:50.651Z,92.80
2019-02-11T01:41:54.377Z,93.00
2019-02-11T01:46:58.099Z,93.90
2019-02-11T01:52:01.821Z,94.40
2019-02-11T01:57:05.920Z,94.50
2019-02-11T02:02:09.848Z,94.60
2019-02-11T02:07:13.771Z,94.90
2019-02-11T02:12:17.453Z,97.20
2019-02-11T02:17:21.404Z,99.10
2019-02-11T02:22:25.378Z,99.90
2019-02-11T02:27:29.089Z,99.90
2019-02-11T02:32:32.788Z,99.90
2019-02-11T02:37:36.479Z,99.90
2019-02-11T02:42:40.136Z,99.90
2019-02-11T02:47:43.844Z,99.90
2019-02-11T02:52:47.509Z,99.90
2019-02-11T02:57:51.186Z,99.90
2019-02-11T03:02:54.895Z,99.90
2019-02-11T03:07:58.585Z,99.90
2019-02-11T03:13:02.524Z,99.90
2019-02-11T03:18:06.188Z,99.90
2019-02-11T03:23:09.900Z,99.90
2019-02-11T03:28:13.618Z,99.90
2019-02-11T03:33:17.349Z,99.90
2019-02-11T03:38:21.031Z,99.90
2019-02-11T03:43:24.712Z,99.90
2019-02-11T03:48:28.455Z,99.90
2019-02-11T03:53:32.453Z,99.90
2019-02-11T03:58:36.193Z,99.90
2019-02-11T04:03:39.911Z,99.90
2019-02-11T04:08:43.564Z,99.90
2019-02-11T04:13:47.241Z,99.90
2019-02-11T04:18:50.926Z,99.90
2019-02-11T04:23:54.629Z,99.90
2019-02-11T04:28:58.647Z,99.90
2019-02-11T04:34:02.653Z,99.90
2019-02-11T04:39:07.286Z,99.90
2019-02-11T04:44:10.985Z,99.90
2019-02-11T04:49:15.029Z,99.90
2019-02-11T04:54:18.784Z,99.90
2019-02-11T04:59:22.784Z,99.90
2019-02-11T05:04:26.825Z,99.90
2019-02-11T05:09:30.532Z,99.90
2019-02-11T05:14:43.218Z,99.90
2019-02-11T05:19:40.184Z,99.90
2019-02-11T05:24:44.172Z,99.90
2019-02-11T05:29:48.270Z,99.90
2019-02-11T05:34:52.004Z,99.90
2019-02-11T05:39:55.704Z,99.90
2019-02-11T05:44:59.735Z,99.90
2019-02-11T05:50:03.586Z,99.90
2019-02-11T05:55:07.621Z,99.90
2019-02-11T06:00:12.362Z,99.90
2019-02-11T06:05:16.039Z,99.90
2019-02-11T06:10:19.736Z,99.90
2019-02-11T06:15:58.351Z,99.90
2019-02-11T06:21:02.383Z,99.90
2019-02-11T06:26:06.062Z,99.90
2019-02-11T06:31:11.586Z,99.90
2019-02-11T06:36:15.470Z,99.90
2019-02-11T06:41:19.204Z,99.90
2019-02-11T06:46:23.057Z,99.90
2019-02-11T06:51:26.834Z,99.90
2019-02-11T06:56:30.549Z,99.90
2019-02-11T07:01:34.337Z,99.90
2019-02-11T07:06:38.157Z,99.90
2019-02-11T07:11:41.910Z,99.90
2019-02-11T07:16:45.595Z,99.90
2019-02-11T07:21:50.137Z,99.90
2019-02-11T07:26:53.789Z,99.90
2019-02-11T07:31:57.488Z,99.90
2019-02-11T07:37:01.331Z,99.90
2019-02-11T07:42:13.959Z,99.90
2019-02-11T07:47:17.847Z,99.90
2019-02-11T07:52:26.708Z,99.90
2019-02-11T07:57:26.939Z,99.90
2019-02-11T08:02:30.620Z,99.90
2019-02-11T08:07:34.275Z,99.90
2019-02-11T08:12:38.272Z,99.90
2019-02-11T08:17:42.003Z,99.90
2019-02-11T08:22:45.800Z,99.30
2019-02-11T08:27:49.536Z,99.30
2019-02-11T08:32:53.243Z,99.00
2019-02-11T08:37:56.922Z,98.80
2019-02-11T08:43:00.600Z,98.70
2019-02-11T08:48:04.721Z,98.70
2019-02-11T08:53:08.743Z,98.80
2019-02-11T08:58:12.476Z,98.50
2019-02-11T09:03:16.468Z,98.50
2019-02-11T09:08:20.477Z,98.00
2019-02-11T09:13:24.209Z,97.40
2019-02-11T09:18:27.988Z,96.90
2019-02-11T09:23:31.661Z,97.00
2019-02-11T09:28:35.885Z,96.50
2019-02-11T09:33:39.555Z,96.50
2019-02-11T09:38:43.254Z,96.60
2019-02-11T09:43:47.175Z,96.60
2019-02-11T09:48:50.933Z,95.70
2019-02-11T09:53:54.628Z,95.50
2019-02-11T09:58:58.639Z,95.40
2019-02-11T10:04:02.322Z,94.10
2019-02-11T10:09:06.312Z,94.30
2019-02-11T10:14:09.991Z,93.60
2019-02-11T10:19:13.663Z,92.90
2019-02-11T10:24:17.332Z,93.00
2019-02-11T10:29:21.331Z,92.50
2019-02-11T10:34:25.185Z,90.20
2019-02-11T10:39:28.864Z,85.30
2019-02-11T10:44:32.608Z,88.40
2019-02-11T10:49:36.275Z,83.80
2019-02-11T10:54:40.263Z,80.80
2019-02-11T10:59:43.958Z,81.00
2019-02-11T11:04:47.937Z,88.70
2019-02-11T11:09:51.597Z,90.40
2019-02-11T11:14:55.641Z,90.10
2019-02-11T11:19:59.324Z,89.60
2019-02-11T11:25:03.105Z,91.20
2019-02-11T11:30:07.477Z,91.60
2019-02-11T11:35:11.599Z,88.00
2019-02-11T11:40:16.619Z,89.20
2019-02-11T11:45:20.408Z,90.80
2019-02-11T11:50:24.137Z,91.30
2019-02-11T11:55:28.058Z,91.90
2019-02-11T12:00:34.817Z,92.70
2019-02-11T12:05:38.531Z,90.70
2019-02-11T12:10:42.315Z,91.30
2019-02-11T12:15:46.603Z,93.00
2019-02-11T12:20:50.340Z,92.80
2019-02-11T12:25:54.343Z,94.50
2019-02-11T12:30:58.203Z,96.70
2019-02-11T12:36:01.888Z,98.90
2019-02-11T12:41:15.646Z,98.80
2019-02-11T12:46:19.587Z,97.80
2019-02-11T12:51:23.280Z,96.30
2019-02-11T12:56:27.039Z,95.30
2019-02-11T13:01:31.114Z,90.00
2019-02-11T13:06:35.105Z,86.20
2019-02-11T13:11:38.848Z,78.50
2019-02-11T13:16:42.852Z,71.30
2019-02-11T13:21:48.336Z,80.30
2019-02-11T13:26:58.528Z,87.10
2019-02-11T13:32:02.312Z,74.10
2019-02-11T13:37:06.540Z,85.30
2019-02-11T13:42:10.408Z,90.90
2019-02-11T13:47:14.165Z,88.10
2019-02-11T13:52:18.527Z,84.20
2019-02-11T13:57:22.333Z,84.20
2019-02-11T14:02:26.102Z,82.30
2019-02-11T14:07:30.127Z,81.50
2019-02-11T14:12:33.990Z,83.00
2019-02-11T14:17:37.760Z,86.30
2019-02-11T14:22:41.926Z,86.70
2019-02-11T14:27:45.694Z,87.00
2019-02-11T14:32:49.950Z,87.00
2019-02-11T14:37:53.641Z,84.20
2019-02-11T14:42:57.470Z,83.10
2019-02-11T14:48:01.563Z,84.00
2019-02-11T14:53:05.681Z,81.00
2019-02-11T14:58:09.466Z,82.10
2019-02-11T15:03:13.146Z,82.50
2019-02-11T15:08:17.167Z,83.40
2019-02-11T15:13:21.185Z,82.80
2019-02-11T15:18:24.895Z,84.90
2019-02-11T15:23:28.674Z,84.90
2019-02-11T15:28:32.553Z,85.40
2019-02-11T15:33:36.255Z,87.30
2019-02-11T15:38:39.997Z,86.60
2019-02-11T15:43:43.706Z,88.70
2019-02-11T15:48:47.370Z,90.40
2019-02-11T15:53:51.391Z,90.70
2019-02-11T15:58:55.334Z,90.10
2019-02-11T16:03:59.866Z,90.20
2019-02-11T16:09:05.304Z,91.00
2019-02-11T16:14:09.007Z,90.80
2019-02-11T16:19:12.973Z,91.40
2019-02-11T16:24:16.678Z,92.00
2019-02-11T16:29:20.391Z,92.10
2019-02-11T16:34:24.476Z,91.90
2019-02-11T16:39:28.516Z,91.80
2019-02-11T16:44:32.207Z,92.20
2019-02-11T16:49:36.325Z,91.50
2019-02-11T16:54:40.012Z,91.60
2019-02-11T16:59:43.837Z,92.70
2019-02-11T17:04:47.538Z,92.00
2019-02-11T17:09:51.343Z,93.20
2019-02-11T17:14:55.257Z,94.50
2019-02-11T17:19:58.967Z,94.80
2019-02-11T17:25:02.751Z,95.20
2019-02-11T17:30:09.355Z,95.80
2019-02-11T17:35:13.104Z,95.90
2019-02-11T17:40:16.838Z,96.10
2019-02-11T17:45:22.603Z,96.10
2019-02-11T17:50:26.420Z,96.40
2019-02-11T17:55:30.170Z,97.20
2019-02-11T18:00:38.720Z,97.70
2019-02-11T18:05:42.500Z,97.60
2019-02-11T18:10:46.337Z,98.10
2019-02-11T18:15:50.263Z,97.90
2019-02-11T18:20:54.019Z,98.10
2019-02-11T18:25:57.709Z,98.70
2019-02-11T18:31:01.534Z,97.10
2019-02-11T18:36:05.266Z,97.50
2019-02-11T18:41:09.088Z,97.70
2019-02-11T18:46:12.808Z,98.20
2019-02-11T18:51:16.592Z,97.80
2019-02-11T18:56:20.265Z,98.30
2019-02-11T19:01:24.304Z,98.00
2019-02-11T19:06:28.017Z,97.80
2019-02-11T19:11:31.741Z,98.00
2019-02-11T19:16:36.257Z,97.40
2019-02-11T19:21:39.939Z,97.80
2019-02-11T19:26:43.720Z,98.00
2019-02-11T19:31:47.461Z,98.20
2019-02-11T19:36:51.147Z,98.40
2019-02-11T19:41:54.817Z,98.90
2019-02-11T19:46:58.510Z,98.20
2019-02-11T19:52:02.267Z,97.40
2019-02-11T19:57:05.932Z,97.90
2019-02-11T20:02:09.933Z,96.80
2019-02-11T20:07:13.629Z,96.80
2019-02-11T20:12:17.350Z,96.70
2019-02-11T20:17:21.031Z,96.80
2019-02-11T20:22:24.821Z,96.50
2019-02-11T20:27:28.609Z,96.80
2019-02-11T20:32:32.387Z,96.20
2019-02-11T20:37:36.165Z,96.50
2019-02-11T20:43:06.934Z,96.70
2019-02-11T20:48:12.944Z,97.20
2019-02-11T20:53:16.640Z,96.50
2019-02-11T20:58:20.349Z,96.50
2019-02-11T21:03:24.068Z,97.40
2019-02-11T21:08:27.762Z,96.40
2019-02-11T21:13:31.622Z,96.60
2019-02-11T21:18:37.880Z,96.20
2019-02-11T21:23:41.970Z,96.20
2019-02-11T21:28:45.628Z,96.30
2019-02-11T21:33:56.119Z,96.00
2019-02-11T21:38:59.985Z,96.20
2019-02-11T21:44:03.710Z,96.60
2019-02-11T21:49:07.676Z,95.90
2019-02-11T21:54:11.858Z,96.20
2019-02-11T21:59:15.613Z,96.30
2019-02-11T22:04:20.289Z,96.00
2019-02-11T22:09:25.416Z,96.10
2019-02-11T22:14:30.809Z,95.90
2019-02-11T22:19:34.662Z,96.60
2019-02-11T22:24:38.803Z,96.40
2019-02-11T22:29:42.604Z,96.90
2019-02-11T22:34:46.363Z,97.00
2019-02-11T22:39:50.055Z,97.30
2019-02-11T22:45:06.540Z,97.10
2019-02-11T22:50:18.468Z,97.50
2019-02-11T22:55:22.181Z,97.90
2019-02-11T23:00:52.179Z,97.30
2019-02-11T23:05:56.181Z,97.50
2019-02-11T23:10:59.860Z,96.20
2019-02-11T23:16:03.597Z,96.00
2019-02-11T23:21:07.511Z,95.70
2019-02-11T23:26:11.594Z,96.10
2019-02-11T23:31:15.279Z,95.60
2019-02-11T23:36:18.959Z,96.60
2019-02-11T23:41:22.964Z,95.10
2019-02-11T23:46:26.685Z,95.10
2019-02-11T23:51:30.453Z,94.60
2019-02-11T23:56:34.116Z,95.00
